createdAt,value
2023-01-03T00:00:48.796Z,64.50
2023-01-03T00:03:30.740Z,75.20
2023-01-03T00:05:57.254Z,100.00
2023-01-03T00:08:23.741Z,138.20
2023-01-03T00:10:50.136Z,98.30
2023-01-03T00:13:16.589Z,113.30
2023-01-03T00:15:42.990Z,124.90
2023-01-03T00:18:09.505Z,128.00
2023-01-03T00:20:36.043Z,139.80
2023-01-03T00:23:02.493Z,125.30
2023-01-03T00:25:29.613Z,114.40
2023-01-03T00:27:57.065Z,126.60
2023-01-03T00:30:23.800Z,115.80
2023-01-03T00:32:50.258Z,116.90
2023-01-03T00:35:16.940Z,115.50
2023-01-03T00:37:43.543Z,119.70
2023-01-03T00:40:10.639Z,99.70
2023-01-03T00:42:57.061Z,71.60
2023-01-03T00:45:25.734Z,75.90
2023-01-03T00:47:53.009Z,126.20
2023-01-03T00:50:19.675Z,58.20
2023-01-03T00:52:46.103Z,64.40
2023-01-03T00:55:12.726Z,67.00
2023-01-03T00:57:39.384Z,86.40
2023-01-03T01:00:06.411Z,98.70
2023-01-03T01:02:33.333Z,64.00
2023-01-03T01:05:00.208Z,70.20
2023-01-03T01:07:27.806Z,103.30
2023-01-03T01:09:54.284Z,115.10
2023-01-03T01:12:20.824Z,79.10
2023-01-03T01:14:47.307Z,164.60
2023-01-03T01:17:16.624Z,87.20
2023-01-03T01:19:45.759Z,98.00
2023-01-03T01:22:12.725Z,231.10
2023-01-03T01:24:39.837Z,446.50
2023-01-03T01:27:06.688Z,479.20
2023-01-03T01:29:33.220Z,398.00
2023-01-03T01:32:01.031Z,316.10
2023-01-03T01:34:27.622Z,375.80
2023-01-03T01:36:54.191Z,596.90
2023-01-03T01:39:23.993Z,320.10
2023-01-03T01:42:13.680Z,336.30
2023-01-03T01:44:51.487Z,373.90
2023-01-03T01:47:37.895Z,286.40
2023-01-03T01:50:29.399Z,317.30
2023-01-03T01:53:06.666Z,463.80
2023-01-03T01:55:41.117Z,339.20
2023-01-03T01:58:08.840Z,384.40
2023-01-03T02:00:36.846Z,339.80
2023-01-03T02:03:04.275Z,234.80
2023-01-03T02:05:33.377Z,220.60
2023-01-03T02:08:00.740Z,246.60
2023-01-03T02:10:55.539Z,411.30
2023-01-03T02:13:33.252Z,179.30
2023-01-03T02:16:19.581Z,192.90
2023-01-03T02:19:25.878Z,260.80
2023-01-03T02:22:20.210Z,143.00
2023-01-03T02:25:08.772Z,149.80
2023-01-03T02:28:13.055Z,139.90
2023-01-03T02:30:52.559Z,80.60
2023-01-03T02:33:43.380Z,94.70
2023-01-03T02:36:38.070Z,188.40
2023-01-03T02:39:20.512Z,100.60
2023-01-03T02:42:23.714Z,160.70
2023-01-03T02:45:03.942Z,198.90
2023-01-03T02:47:39.016Z,135.50
2023-01-03T02:50:08.942Z,190.80
2023-01-03T02:52:39.289Z,220.90
2023-01-03T02:55:13.866Z,113.00
2023-01-03T02:57:47.131Z,126.10
2023-01-03T03:00:17.269Z,126.20
2023-01-03T03:02:51.083Z,99.50
2023-01-03T03:05:24.089Z,111.90
2023-01-03T03:07:51.092Z,122.60
2023-01-03T03:10:34.864Z,95.80
2023-01-03T03:13:15.303Z,116.00
2023-01-03T03:15:55.396Z,126.10
2023-01-03T03:18:30.683Z,134.90
2023-01-03T03:21:15.412Z,92.90
2023-01-03T03:23:55.505Z,77.90
2023-01-03T03:26:30.041Z,104.40
2023-01-03T03:29:03.134Z,67.80
2023-01-03T03:31:40.959Z,72.60
2023-01-03T03:34:18.392Z,84.80
2023-01-03T03:37:00.156Z,84.30
2023-01-03T03:39:46.505Z,67.10
2023-01-03T03:42:46.711Z,57.40
2023-01-03T03:45:24.347Z,58.20
2023-01-03T03:48:07.157Z,84.40
2023-01-03T03:50:42.704Z,68.00
2023-01-03T03:53:11.807Z,69.30
2023-01-03T03:55:44.126Z,74.40
2023-01-03T03:58:16.481Z,58.00
2023-01-03T04:00:46.754Z,108.30
2023-01-03T04:03:15.276Z,113.40
2023-01-03T04:05:48.505Z,81.70
2023-01-03T04:08:14.997Z,88.10
2023-01-03T04:10:42.466Z,113.50
2023-01-03T04:13:09.260Z,87.50
2023-01-03T04:15:35.732Z,163.80
2023-01-03T04:18:02.294Z,69.30
2023-01-03T04:20:29.331Z,78.40
2023-01-03T04:22:56.128Z,87.20
2023-01-03T04:25:22.616Z,98.90
2023-01-03T04:27:50.073Z,88.40
2023-01-03T04:30:16.900Z,74.60
2023-01-03T04:32:43.568Z,58.90
2023-01-03T04:35:10.130Z,40.50
2023-01-03T04:37:36.698Z,40.60
2023-01-03T04:40:03.479Z,41.00
2023-01-03T04:42:40.351Z,34.90
2023-01-03T04:45:07.478Z,42.10
2023-01-03T04:47:33.979Z,36.40
2023-01-03T04:50:00.544Z,39.30
2023-01-03T04:52:28.450Z,71.70
2023-01-03T04:54:55.026Z,128.50
2023-01-03T04:57:21.490Z,62.30
2023-01-03T04:59:47.994Z,98.20
2023-01-03T05:02:14.735Z,51.50
2023-01-03T05:04:41.740Z,76.00
2023-01-03T05:07:08.275Z,143.20
2023-01-03T05:09:34.857Z,73.20
2023-01-03T05:12:01.568Z,156.30
2023-01-03T05:14:28.083Z,135.90
2023-01-03T05:16:54.515Z,120.70
2023-01-03T05:19:21.054Z,66.30
2023-01-03T05:22:02.755Z,42.40
2023-01-03T05:24:42.970Z,53.50
2023-01-03T05:27:09.465Z,317.20
2023-01-03T05:29:36.470Z,283.30
2023-01-03T05:32:03.222Z,202.50
2023-01-03T05:34:29.723Z,306.20
2023-01-03T05:36:56.165Z,203.50
2023-01-03T05:39:22.628Z,238.00
2023-01-03T05:42:04.000Z,192.90
2023-01-03T05:44:33.300Z,201.80
2023-01-03T05:47:01.882Z,444.20
2023-01-03T05:49:29.100Z,152.20
2023-01-03T05:51:55.875Z,109.80
2023-01-03T05:54:22.363Z,105.70
2023-01-03T05:56:50.385Z,103.10
2023-01-03T05:59:17.639Z,235.10
2023-01-03T06:01:44.258Z,110.50
2023-01-03T06:04:10.939Z,148.80
2023-01-03T06:06:37.443Z,159.50
2023-01-03T06:09:03.941Z,127.90
2023-01-03T06:11:30.532Z,183.90
2023-01-03T06:13:57.112Z,175.30
2023-01-03T06:16:36.215Z,159.00
2023-01-03T06:19:04.453Z,158.20
2023-01-03T06:21:30.901Z,146.10
2023-01-03T06:23:57.317Z,175.00
2023-01-03T06:26:26.086Z,166.20
2023-01-03T06:28:52.772Z,248.30
2023-01-03T06:31:19.991Z,194.40
2023-01-03T06:33:47.362Z,193.40
2023-01-03T06:36:16.442Z,213.90
2023-01-03T06:38:43.060Z,241.60
2023-01-03T06:41:09.736Z,197.20
2023-01-03T06:43:36.238Z,149.60
2023-01-03T06:46:18.123Z,159.80
2023-01-03T06:48:58.173Z,155.40
2023-01-03T06:51:38.444Z,74.80
2023-01-03T06:54:06.606Z,37.70
2023-01-03T06:56:33.259Z,47.80
2023-01-03T06:59:09.135Z,82.60
2023-01-03T07:01:35.941Z,64.50
2023-01-03T07:04:02.720Z,76.70
2023-01-03T07:06:29.279Z,192.70
2023-01-03T07:08:55.883Z,152.90
2023-01-03T07:11:23.869Z,124.40
2023-01-03T07:14:01.697Z,70.20
2023-01-03T07:16:32.133Z,149.50
2023-01-03T07:18:59.074Z,108.20
2023-01-03T07:21:27.834Z,59.50
2023-01-03T07:23:55.701Z,273.50
2023-01-03T07:26:23.810Z,116.80
2023-01-03T07:28:51.670Z,51.50
2023-01-03T07:31:18.751Z,60.70
2023-01-03T07:33:45.442Z,67.40
2023-01-03T07:36:13.931Z,88.50
2023-01-03T07:38:42.955Z,94.70
2023-01-03T07:41:10.722Z,66.90
2023-01-03T07:43:39.604Z,57.00
2023-01-03T07:46:23.794Z,69.80
2023-01-03T07:48:52.958Z,153.70
2023-01-03T07:51:21.245Z,48.60
2023-01-03T07:53:55.003Z,9.90
2023-01-03T07:56:24.875Z,79.60
2023-01-03T07:58:52.150Z,154.10
2023-01-03T08:01:22.305Z,138.50
2023-01-03T08:03:49.246Z,106.90
2023-01-03T08:06:20.836Z,108.00
2023-01-03T08:09:08.089Z,111.80
2023-01-03T08:11:53.822Z,67.90
2023-01-03T08:14:25.714Z,96.00
2023-01-03T08:16:55.185Z,126.30
2023-01-03T08:19:22.981Z,103.90
2023-01-03T08:21:49.627Z,68.30
2023-01-03T08:24:16.189Z,53.60
2023-01-03T08:26:42.689Z,46.80
2023-01-03T08:29:09.344Z,124.30
2023-01-03T08:31:41.582Z,90.40
2023-01-03T08:34:17.014Z,90.30
2023-01-03T08:36:51.275Z,104.70
2023-01-03T08:39:24.027Z,65.50
2023-01-03T08:41:56.900Z,58.30
2023-01-03T08:44:25.161Z,59.60
2023-01-03T08:46:55.214Z,62.30
2023-01-03T08:49:22.181Z,96.20
2023-01-03T08:51:49.075Z,90.80
2023-01-03T08:54:15.790Z,74.50
2023-01-03T08:56:42.373Z,63.60
2023-01-03T08:59:08.945Z,62.30
2023-01-03T09:01:35.690Z,69.80
2023-01-03T09:04:05.239Z,63.70
2023-01-03T09:06:33.390Z,64.80
2023-01-03T09:09:04.592Z,60.80
2023-01-03T09:11:31.359Z,57.70
2023-01-03T09:13:58.039Z,99.80
2023-01-03T09:16:24.829Z,142.30
2023-01-03T09:18:51.523Z,132.30
2023-01-03T09:21:18.368Z,72.70
2023-01-03T09:23:45.104Z,68.50
2023-01-03T09:26:11.750Z,68.20
2023-01-03T09:28:38.376Z,102.00
2023-01-03T09:31:05.030Z,110.70
2023-01-03T09:33:31.717Z,69.70
2023-01-03T09:35:58.487Z,65.30
2023-01-03T09:38:25.211Z,70.70
2023-01-03T09:41:02.130Z,63.60
2023-01-03T09:43:36.348Z,64.50
2023-01-03T09:46:05.264Z,63.40
2023-01-03T09:48:38.961Z,77.10
2023-01-03T09:51:30.155Z,77.80
2023-01-03T09:54:10.944Z,68.40
2023-01-03T09:56:51.324Z,66.60
2023-01-03T09:59:31.343Z,62.10
2023-01-03T10:02:41.739Z,70.60
2023-01-03T10:05:23.698Z,63.80
2023-01-03T10:08:12.140Z,63.40
2023-01-03T10:10:51.257Z,60.80
2023-01-03T10:13:52.519Z,62.20
2023-01-03T10:16:52.692Z,64.10
2023-01-03T10:19:52.851Z,66.90
2023-01-03T10:22:26.440Z,68.90
2023-01-03T10:25:17.344Z,65.80
2023-01-03T10:27:59.375Z,78.10
2023-01-03T10:30:56.604Z,89.20
2023-01-03T10:33:38.535Z,65.90
2023-01-03T10:38:35.406Z,64.10
2023-01-03T10:41:16.621Z,67.30
2023-01-03T10:43:54.844Z,87.80
2023-01-03T10:46:27.362Z,72.50
2023-01-03T10:49:28.365Z,75.00
2023-01-03T10:52:02.358Z,79.30
2023-01-03T10:54:50.954Z,65.90
2023-01-03T10:57:38.873Z,66.40
2023-01-03T11:00:35.791Z,70.10
2023-01-03T11:03:16.541Z,68.40
2023-01-03T11:06:06.205Z,80.10
2023-01-03T11:08:45.457Z,76.60
2023-01-03T11:11:29.946Z,84.20
2023-01-03T11:14:16.357Z,68.90
2023-01-03T11:16:42.984Z,80.30
2023-01-03T11:19:15.915Z,61.50
2023-01-03T11:21:51.642Z,66.40
2023-01-03T11:24:40.924Z,59.40
2023-01-03T11:27:22.682Z,57.80
2023-01-03T11:30:02.921Z,63.30
2023-01-03T11:32:58.440Z,55.70
2023-01-03T11:35:46.320Z,52.20
2023-01-03T11:38:49.231Z,61.20
2023-01-03T11:41:33.002Z,64.30
2023-01-03T11:44:29.125Z,73.40
2023-01-03T11:47:14.480Z,95.40
2023-01-03T11:50:08.633Z,82.50
2023-01-03T11:52:49.026Z,77.70
2023-01-03T11:55:39.228Z,76.90
2023-01-03T11:58:32.696Z,97.00
2023-01-03T12:01:19.035Z,94.10
2023-01-03T12:04:05.284Z,92.90
2023-01-03T12:06:50.166Z,78.10
2023-01-03T12:09:38.017Z,79.00
2023-01-03T12:12:29.276Z,72.30
2023-01-03T12:15:03.942Z,72.60
2023-01-03T12:17:43.659Z,69.00
2023-01-03T12:20:38.955Z,61.50
2023-01-03T12:23:28.230Z,54.70
2023-01-03T12:25:58.838Z,70.90
2023-01-03T12:28:34.780Z,66.10
2023-01-03T12:31:19.179Z,70.70
2023-01-03T12:34:18.979Z,63.30
2023-01-03T12:37:03.493Z,57.60
2023-01-03T12:39:43.364Z,63.90
2023-01-03T12:42:32.986Z,69.30
2023-01-03T12:45:23.577Z,60.20
2023-01-03T12:47:58.359Z,63.20
2023-01-03T12:50:36.900Z,59.30
2023-01-03T12:53:15.593Z,72.40
2023-01-03T12:56:02.710Z,86.20
2023-01-03T13:01:14.853Z,63.60
2023-01-03T13:03:45.243Z,85.50
2023-01-03T13:06:20.165Z,64.30
2023-01-03T13:08:59.521Z,55.20
2023-01-03T13:11:33.445Z,52.80
2023-01-03T13:14:05.967Z,53.40
2023-01-03T13:16:41.528Z,53.80
2023-01-03T13:19:47.834Z,49.40
2023-01-03T13:22:42.934Z,51.70
2023-01-03T13:25:30.489Z,52.10
2023-01-03T13:27:59.241Z,52.00
2023-01-03T13:30:30.014Z,51.80
2023-01-03T13:33:16.786Z,47.90
2023-01-03T13:36:03.241Z,52.30
2023-01-03T13:38:32.207Z,49.50
2023-01-03T13:41:19.649Z,52.10
2023-01-03T13:43:50.078Z,51.20
2023-01-03T13:46:22.867Z,53.50
2023-01-03T13:48:55.727Z,54.10
2023-01-03T13:51:31.919Z,55.80
2023-01-03T13:54:03.437Z,52.90
2023-01-03T13:56:56.692Z,58.10
2023-01-03T13:59:34.183Z,68.30
2023-01-03T14:02:29.229Z,79.90
2023-01-03T14:05:12.861Z,76.80
2023-01-03T14:08:12.326Z,72.00
2023-01-03T14:11:13.342Z,57.20
2023-01-03T14:13:49.406Z,54.10
2023-01-03T14:16:30.059Z,57.80
2023-01-03T14:19:05.848Z,59.30
2023-01-03T14:21:42.097Z,64.50
2023-01-03T14:24:18.357Z,56.90
2023-01-03T14:26:45.025Z,58.60
2023-01-03T14:29:17.574Z,65.80
2023-01-03T14:31:47.583Z,116.90
2023-01-03T14:34:26.968Z,94.50
2023-01-03T14:37:00.976Z,90.50
2023-01-03T14:42:01.442Z,78.70
2023-01-03T14:44:30.219Z,78.20
2023-01-03T14:46:59.504Z,69.80
2023-01-03T14:49:38.963Z,58.60
2023-01-03T14:52:13.138Z,60.40
2023-01-03T14:54:44.413Z,58.80
2023-01-03T14:57:19.800Z,61.20
2023-01-03T14:59:48.054Z,60.10
2023-01-03T15:02:15.480Z,64.20
2023-01-03T15:04:44.542Z,63.20
2023-01-03T15:07:28.403Z,63.50
2023-01-03T15:10:05.890Z,76.20
2023-01-03T15:12:35.847Z,68.70
2023-01-03T15:15:21.521Z,62.10
2023-01-03T15:17:52.417Z,65.30
2023-01-03T15:20:27.431Z,65.50
2023-01-03T15:22:55.215Z,64.30
2023-01-03T15:25:32.185Z,63.40
2023-01-03T15:28:27.258Z,71.20
2023-01-03T15:31:05.198Z,63.70
2023-01-03T15:33:33.190Z,62.60
2023-01-03T15:36:05.533Z,61.00
2023-01-03T15:38:35.534Z,58.80
2023-01-03T15:41:36.733Z,58.70
2023-01-03T15:44:03.524Z,64.90
2023-01-03T15:46:30.202Z,67.00
2023-01-03T15:48:56.841Z,62.10
2023-01-03T15:51:23.479Z,61.30
2023-01-03T15:53:50.041Z,65.40
2023-01-03T15:56:22.317Z,66.30
2023-01-03T15:58:51.279Z,66.30
2023-01-03T16:01:19.674Z,53.70
2023-01-03T16:03:48.796Z,65.50
2023-01-03T16:06:15.755Z,57.00
2023-01-03T16:08:42.662Z,51.80
2023-01-03T16:11:16.908Z,40.10
2023-01-03T16:13:51.515Z,42.40
2023-01-03T16:16:23.733Z,46.30
2023-01-03T16:18:50.747Z,39.90
2023-01-03T16:21:17.968Z,45.80
2023-01-03T16:23:44.681Z,35.80
2023-01-03T16:26:11.338Z,46.70
2023-01-03T16:28:38.006Z,44.60
2023-01-03T16:31:17.410Z,64.80
2023-01-03T16:33:47.081Z,66.40
2023-01-03T16:36:30.200Z,64.70
2023-01-03T16:38:58.087Z,72.60
2023-01-03T16:41:25.288Z,71.20
2023-01-03T16:43:52.593Z,70.00
2023-01-03T16:46:22.223Z,60.60
2023-01-03T16:48:52.201Z,49.00
2023-01-03T16:51:24.214Z,55.10
2023-01-03T16:53:52.874Z,54.60
2023-01-03T16:56:19.454Z,48.30
2023-01-03T16:58:46.141Z,46.40
2023-01-03T17:01:13.792Z,31.20
2023-01-03T17:03:42.295Z,19.70
2023-01-03T17:06:25.013Z,22.50
2023-01-03T17:08:51.694Z,30.70
2023-01-03T17:11:18.491Z,85.60
2023-01-03T17:13:46.769Z,68.50
2023-01-03T17:16:16.093Z,55.70
2023-01-03T17:18:44.359Z,53.80
2023-01-03T17:21:19.781Z,45.90
2023-01-03T17:23:47.284Z,42.50
2023-01-03T17:26:17.869Z,45.50
2023-01-03T17:28:46.864Z,41.20
2023-01-03T17:31:18.314Z,29.70
2023-01-03T17:33:45.471Z,16.60
2023-01-03T17:36:14.254Z,26.70
2023-01-03T17:38:43.393Z,27.70
2023-01-03T17:41:18.284Z,22.80
2023-01-03T17:43:45.784Z,12.80
2023-01-03T17:46:44.697Z,14.80
2023-01-03T17:49:24.659Z,14.70
2023-01-03T17:51:54.793Z,15.80
2023-01-03T17:54:26.945Z,13.40
2023-01-03T17:56:57.708Z,12.10
2023-01-03T17:59:25.588Z,244.60
2023-01-03T18:01:53.860Z,63.20
2023-01-03T18:04:21.569Z,34.40
2023-01-03T18:06:58.701Z,40.50
2023-01-03T18:09:27.754Z,46.00
2023-01-03T18:11:54.275Z,37.10
2023-01-03T18:14:21.317Z,37.60
2023-01-03T18:16:54.767Z,33.40
2023-01-03T18:19:21.850Z,24.20
2023-01-03T18:21:49.111Z,17.00
2023-01-03T18:24:21.403Z,19.00
2023-01-03T18:26:52.248Z,19.20
2023-01-03T18:29:19.255Z,24.30
2023-01-03T18:31:47.192Z,22.30
2023-01-03T18:34:14.386Z,18.00
2023-01-03T18:36:46.227Z,16.90
2023-01-03T18:39:16.292Z,18.40
2023-01-03T18:41:43.244Z,22.00
2023-01-03T18:44:26.205Z,21.20
2023-01-03T18:46:55.248Z,21.20
2023-01-03T18:49:21.853Z,19.20
2023-01-03T18:51:52.195Z,18.50
2023-01-03T18:54:21.696Z,16.20
2023-01-03T18:56:48.877Z,18.20
2023-01-03T18:59:23.214Z,15.60
2023-01-03T19:01:50.487Z,16.00
2023-01-03T19:04:17.076Z,15.10
2023-01-03T19:06:46.097Z,15.50
2023-01-03T19:09:20.043Z,15.40
2023-01-03T19:11:47.327Z,16.10
2023-01-03T19:14:14.316Z,16.10
2023-01-03T19:16:40.988Z,14.60
2023-01-03T19:19:08.021Z,15.80
2023-01-03T19:21:38.087Z,14.40
2023-01-03T19:24:17.629Z,15.00
2023-01-03T19:26:49.693Z,17.40
2023-01-03T19:29:21.655Z,16.20
2023-01-03T19:31:50.669Z,18.30
2023-01-03T19:34:20.256Z,19.10
2023-01-03T19:36:48.132Z,15.30
2023-01-03T19:39:17.713Z,17.20
2023-01-03T19:42:11.228Z,18.80
2023-01-03T19:44:40.733Z,15.50
2023-01-03T19:47:13.884Z,17.50
2023-01-03T19:49:42.084Z,18.20
2023-01-03T19:52:12.238Z,18.50
2023-01-03T19:54:39.318Z,21.60
2023-01-03T19:57:22.330Z,19.70
2023-01-03T19:59:53.231Z,17.70
2023-01-03T20:02:35.068Z,18.90
2023-01-03T20:05:03.134Z,36.10
2023-01-03T20:07:30.005Z,17.50
2023-01-03T20:09:56.710Z,17.50
2023-01-03T20:12:25.988Z,20.30
2023-01-03T20:14:55.014Z,19.60
2023-01-03T20:17:24.497Z,19.00
2023-01-03T20:19:52.074Z,22.60
2023-01-03T20:22:53.376Z,18.60
2023-01-03T20:25:32.086Z,78.30
2023-01-03T20:28:00.722Z,59.60
2023-01-03T20:30:29.705Z,17.70
2023-01-03T20:32:56.764Z,24.50
2023-01-03T20:38:16.042Z,21.20
2023-01-03T20:40:42.483Z,21.60
2023-01-03T20:43:13.818Z,20.10
2023-01-03T20:45:40.654Z,16.30
2023-01-03T20:48:15.775Z,19.60
2023-01-03T20:50:46.403Z,23.60
2023-01-03T20:53:19.803Z,20.00
2023-01-03T20:55:47.361Z,20.30
2023-01-03T20:58:16.507Z,21.70
2023-01-03T21:00:43.580Z,21.40
2023-01-03T21:03:10.669Z,20.70
2023-01-03T21:05:38.038Z,23.50
2023-01-03T21:08:16.519Z,21.70
2023-01-03T21:10:43.985Z,20.80
2023-01-03T21:13:10.719Z,26.40
2023-01-03T21:15:37.635Z,22.30
2023-01-03T21:18:05.497Z,25.40
2023-01-03T21:20:32.734Z,36.50
2023-01-03T21:22:59.485Z,30.10
2023-01-03T21:25:29.660Z,23.60
2023-01-03T21:27:56.253Z,25.60
2023-01-03T21:30:23.656Z,21.40
2023-01-03T21:32:50.449Z,25.30
2023-01-03T21:35:20.679Z,21.10
2023-01-03T21:37:48.137Z,22.20
2023-01-03T21:40:18.995Z,21.90
2023-01-03T21:43:03.720Z,24.40
2023-01-03T21:45:50.110Z,20.00
2023-01-03T21:48:17.801Z,25.10
2023-01-03T21:50:46.642Z,24.70
2023-01-03T21:53:15.264Z,22.10
2023-01-03T21:55:42.033Z,25.50
2023-01-03T21:58:12.740Z,47.90
2023-01-03T22:00:39.813Z,49.70
2023-01-03T22:03:19.960Z,57.20
2023-01-03T22:05:46.481Z,75.00
2023-01-03T22:08:13.025Z,77.30
2023-01-03T22:10:41.503Z,75.00
2023-01-03T22:13:09.692Z,78.50
2023-01-03T22:15:37.864Z,60.60
2023-01-03T22:18:08.279Z,74.60
2023-01-03T22:20:38.480Z,73.50
2023-01-03T22:23:07.613Z,63.30
2023-01-03T22:25:34.247Z,72.60
2023-01-03T22:28:00.892Z,69.10
2023-01-03T22:30:27.391Z,64.90
2023-01-03T22:32:56.930Z,61.50
2023-01-03T22:35:23.963Z,67.00
2023-01-03T22:37:50.411Z,60.70
2023-01-03T22:40:17.310Z,54.10
2023-01-03T22:42:43.733Z,50.10
2023-01-03T22:45:10.525Z,51.20
2023-01-03T22:47:37.502Z,52.30
2023-01-03T22:50:06.051Z,50.60
2023-01-03T22:52:33.231Z,47.50
2023-01-03T22:54:59.769Z,48.80
2023-01-03T22:57:26.367Z,41.50
2023-01-03T22:59:52.909Z,44.50
2023-01-03T23:02:24.633Z,39.50
2023-01-03T23:04:55.070Z,39.20
2023-01-03T23:07:21.784Z,34.90
2023-01-03T23:09:48.301Z,39.80
2023-01-03T23:12:25.212Z,37.10
2023-01-03T23:14:51.682Z,34.10
2023-01-03T23:17:35.553Z,33.60
2023-01-03T23:20:02.120Z,38.00
2023-01-03T23:22:28.608Z,37.60
2023-01-03T23:24:57.424Z,37.60
2023-01-03T23:27:26.555Z,36.50
2023-01-03T23:29:54.107Z,41.20
2023-01-03T23:32:20.541Z,38.20
2023-01-03T23:34:47.051Z,39.90
2023-01-03T23:37:13.646Z,39.00
2023-01-03T23:39:40.214Z,43.60
2023-01-03T23:42:06.616Z,38.90
2023-01-03T23:44:33.155Z,42.50
2023-01-03T23:46:59.674Z,43.40
2023-01-03T23:49:26.176Z,39.30
2023-01-03T23:51:52.611Z,42.30
2023-01-03T23:54:19.182Z,42.40
2023-01-03T23:56:45.790Z,40.60
2023-01-03T23:59:12.529Z,40.00
